Time;durP1;ratioP1;P1;durP2;ratioP2;P2;SDS_P1;SDS_P2;PMS_P1;PMS_P2;Temp;Humidity;BMP_temperature;BMP_pressure;BME280_temperature;BME280_humidity;BME280_pressure;Samples;Min_cycle;Max_cycle;Signal;HPM_P1;HPM_P2
2024/03/04 00:02:09;;;;;;;35.50;19.15;;;6.40;99.90;;;;;;4972745;28;20041;-81
2024/03/04 00:04:37;;;;;;;36.80;18.65;;;6.40;99.90;;;;;;4988082;28;20421;-81
2024/03/04 00:07:04;;;;;;;32.67;19.95;;;6.30;99.90;;;;;;4972979;28;20027;-81
2024/03/04 00:09:30;;;;;;;29.60;17.75;;;6.30;99.90;;;;;;4972406;28;20019;-81
2024/03/04 00:11:56;;;;;;;33.28;18.10;;;6.30;99.90;;;;;;4972402;28;20027;-81
2024/03/04 00:14:21;;;;;;;30.33;17.52;;;6.30;99.90;;;;;;4971349;28;20037;-81
2024/03/04 00:16:50;;;;;;;34.97;19.40;;;6.30;99.90;;;;;;4971170;28;20602;-80
2024/03/04 00:19:19;;;;;;;28.52;17.33;;;6.30;99.90;;;;;;4970636;28;20102;-80
2024/03/04 00:21:45;;;;;;;40.53;22.50;;;6.20;99.90;;;;;;4972685;28;20029;-82
2024/03/04 00:24:11;;;;;;;42.25;22.15;;;6.20;99.90;;;;;;4972607;28;20023;-81
2024/03/04 00:26:37;;;;;;;47.92;24.40;;;6.30;99.90;;;;;;4972411;28;20047;-81
2024/03/04 00:29:03;;;;;;;42.35;22.88;;;6.30;99.90;;;;;;4970361;28;20026;-80
2024/03/04 00:31:30;;;;;;;40.08;21.98;;;6.20;99.90;;;;;;4987362;28;20126;-81
2024/03/04 00:33:56;;;;;;;34.25;19.85;;;6.20;99.90;;;;;;4970991;28;20034;-81
2024/03/04 00:36:23;;;;;;;38.88;22.73;;;6.10;99.90;;;;;;4987290;28;20051;-81
2024/03/04 00:38:51;;;;;;;37.97;20.75;;;6.00;99.90;;;;;;4970200;28;20027;-82
2024/03/04 00:41:22;;;;;;;35.63;19.33;;;5.90;99.90;;;;;;4971036;28;20632;-81
2024/03/04 00:43:48;;;;;;;28.55;17.27;;;5.90;99.90;;;;;;4971404;28;20033;-81
2024/03/04 00:46:14;;;;;;;31.75;17.70;;;5.80;99.90;;;;;;4971995;28;20022;-81
2024/03/04 00:48:39;;;;;;;31.00;17.88;;;5.70;99.90;;;;;;4970792;28;20489;-81
2024/03/04 00:51:05;;;;;;;45.72;20.10;;;5.80;99.90;;;;;;4970170;28;20038;-81
2024/03/04 00:53:31;;;;;;;35.00;19.75;;;5.80;99.90;;;;;;4971958;28;20084;-81
2024/03/04 00:55:56;;;;;;;35.28;20.30;;;5.80;99.90;;;;;;4971989;28;20027;-81
2024/03/04 00:58:23;;;;;;;33.47;19.13;;;5.80;99.90;;;;;;4970531;28;20103;-81
2024/03/04 01:00:49;;;;;;;34.67;19.17;;;5.80;99.90;;;;;;4969781;28;20018;-81
2024/03/04 01:03:15;;;;;;;30.52;18.25;;;5.80;99.90;;;;;;4970325;28;20026;-81
2024/03/04 01:05:41;;;;;;;38.38;19.95;;;5.70;99.90;;;;;;4971697;28;20025;-81
2024/03/04 01:08:07;;;;;;;43.10;23.05;;;5.70;99.90;;;;;;4971375;28;20019;-81
2024/03/04 01:10:33;;;;;;;40.70;20.77;;;5.70;99.90;;;;;;4969724;28;20108;-81
2024/03/04 01:12:58;;;;;;;45.42;23.67;;;5.80;99.90;;;;;;4971898;28;20085;-81
2024/03/04 01:15:25;;;;;;;48.15;23.65;;;5.80;99.90;;;;;;4970361;28;20027;-81
2024/03/04 01:17:51;;;;;;;38.53;19.70;;;5.80;99.90;;;;;;4970233;28;20019;-81
2024/03/04 01:20:20;;;;;;;36.38;21.50;;;5.80;99.90;;;;;;4969604;28;20023;-81
2024/03/04 01:22:46;;;;;;;35.33;19.92;;;5.80;99.90;;;;;;4970450;28;20027;-81
2024/03/04 01:25:12;;;;;;;35.58;20.10;;;5.70;99.90;;;;;;4970186;28;20110;-81
2024/03/04 01:27:38;;;;;;;31.77;18.00;;;5.60;99.90;;;;;;4970186;28;20054;-81
2024/03/04 01:30:04;;;;;;;34.53;20.70;;;5.60;99.90;;;;;;4969439;28;20093;-81
2024/03/04 01:32:29;;;;;;;38.03;22.52;;;5.50;99.90;;;;;;4969821;28;20034;-81
2024/03/04 01:34:55;;;;;;;36.95;21.02;;;5.50;99.90;;;;;;4970014;28;20030;-81
2024/03/04 01:37:21;;;;;;;38.28;20.85;;;5.50;99.90;;;;;;4969878;28;20114;-81
2024/03/04 01:39:47;;;;;;;34.45;19.95;;;5.50;99.90;;;;;;4969390;28;20125;-81
2024/03/04 01:42:12;;;;;;;39.95;22.23;;;5.40;99.90;;;;;;4969940;28;20023;-81
2024/03/04 01:44:38;;;;;;;41.67;21.00;;;5.50;99.90;;;;;;4969835;28;20029;-81
2024/03/04 01:47:17;;;;;;;36.33;19.00;;;5.40;99.90;;;;;;4969768;28;20387;-81
2024/03/04 01:49:44;;;;;;;35.33;20.05;;;5.30;99.90;;;;;;4969529;28;20469;-81
2024/03/04 01:52:11;;;;;;;38.15;20.17;;;5.30;99.90;;;;;;4985955;28;20027;-81
2024/03/04 01:54:38;;;;;;;31.40;19.25;;;5.30;99.90;;;;;;4969310;28;20039;-81
2024/03/04 01:57:05;;;;;;;45.50;25.52;;;5.20;99.90;;;;;;4969505;28;20042;-81
2024/03/04 01:59:33;;;;;;;40.28;22.27;;;5.30;99.90;;;;;;4968892;28;20023;-81
2024/03/04 02:01:59;;;;;;;45.80;24.92;;;5.30;99.90;;;;;;4969466;28;20027;-81
2024/03/04 02:04:26;;;;;;;42.90;24.98;;;5.40;99.90;;;;;;4969645;28;20023;-81
2024/03/04 02:06:53;;;;;;;47.88;23.98;;;5.40;99.90;;;;;;4969777;28;20046;-81
2024/03/04 02:09:20;;;;;;;46.47;25.60;;;5.40;99.90;;;;;;4969128;28;20552;-81
2024/03/04 02:11:46;;;;;;;39.38;20.63;;;5.40;99.90;;;;;;4969657;28;20039;-81
2024/03/04 02:14:12;;;;;;;37.45;22.35;;;5.30;99.90;;;;;;4969608;28;20022;-81
2024/03/04 02:16:38;;;;;;;38.63;22.60;;;5.30;99.90;;;;;;4971038;28;20031;-81
2024/03/04 02:19:07;;;;;;;44.83;24.30;;;5.30;99.90;;;;;;4968735;28;20039;-81
2024/03/04 02:21:37;;;;;;;53.85;27.35;;;5.30;99.90;;;;;;4969160;28;20019;-81
2024/03/04 02:24:03;;;;;;;42.20;23.30;;;5.30;99.90;;;;;;4969450;28;20019;-81
2024/03/04 02:26:29;;;;;;;45.58;26.02;;;5.30;99.90;;;;;;4968671;28;20082;-81
2024/03/04 02:28:55;;;;;;;47.58;26.27;;;5.30;99.90;;;;;;4969134;28;20033;-81
2024/03/04 02:31:20;;;;;;;49.45;26.02;;;5.30;99.90;;;;;;4985596;28;20034;-81
2024/03/04 02:33:46;;;;;;;44.03;25.15;;;5.20;99.90;;;;;;4969366;28;20396;-81
2024/03/04 02:36:12;;;;;;;50.63;27.70;;;5.10;99.90;;;;;;4969671;28;20027;-81
2024/03/04 02:38:37;;;;;;;56.03;29.70;;;5.20;99.90;;;;;;4969286;28;20038;-81
2024/03/04 02:41:04;;;;;;;50.33;26.98;;;5.20;99.90;;;;;;4969032;28;20034;-81
2024/03/04 02:43:30;;;;;;;61.13;29.42;;;5.20;99.90;;;;;;4969146;28;20636;-81
2024/03/04 02:45:56;;;;;;;58.25;30.50;;;5.30;99.90;;;;;;4969141;28;20114;-81
2024/03/04 02:48:21;;;;;;;59.50;31.85;;;5.30;99.90;;;;;;4969179;28;20069;-81
2024/03/04 02:50:47;;;;;;;53.58;28.30;;;5.30;99.90;;;;;;4968790;28;20027;-81
2024/03/04 02:53:12;;;;;;;59.80;31.42;;;5.30;99.90;;;;;;4969155;28;20393;-81
2024/03/04 02:55:38;;;;;;;47.60;26.52;;;5.30;99.90;;;;;;4969104;28;20617;-81
2024/03/04 02:58:06;;;;;;;54.58;27.92;;;5.20;99.90;;;;;;4968909;28;20041;-81
2024/03/04 03:00:32;;;;;;;46.58;26.05;;;5.20;99.90;;;;;;4968676;28;20027;-81
2024/03/04 03:03:00;;;;;;;48.35;23.90;;;5.10;99.90;;;;;;4969175;28;20027;-81
2024/03/04 03:05:26;;;;;;;51.83;26.15;;;5.10;99.90;;;;;;4969152;28;20026;-81
2024/03/04 03:07:52;;;;;;;54.47;28.30;;;5.00;99.90;;;;;;4972552;28;20114;-81
2024/03/04 03:10:20;;;;;;;54.65;27.95;;;5.00;99.90;;;;;;4972000;28;20113;-81
2024/03/04 03:12:46;;;;;;;47.78;25.80;;;5.00;99.90;;;;;;4973972;28;20374;-81
2024/03/04 03:15:11;;;;;;;55.33;29.70;;;5.00;99.90;;;;;;4972783;28;20085;-81
2024/03/04 03:17:37;;;;;;;44.67;24.55;;;5.00;99.90;;;;;;4972592;28;20037;-81
2024/03/04 03:20:18;;;;;;;44.88;23.42;;;5.00;99.90;;;;;;4971760;28;20396;-81
2024/03/04 03:22:48;;;;;;;44.22;23.13;;;4.80;99.90;;;;;;4972403;28;20240;-81
2024/03/04 03:25:14;;;;;;;39.40;22.55;;;4.70;99.90;;;;;;4972277;28;20081;-81
2024/03/04 03:27:41;;;;;;;42.05;22.63;;;4.70;99.90;;;;;;4972117;28;20110;-81
2024/03/04 03:30:07;;;;;;;47.25;24.63;;;4.70;99.90;;;;;;4971728;28;20118;-81
2024/03/04 03:32:37;;;;;;;42.78;23.88;;;4.70;99.90;;;;;;4971342;28;20328;-81
2024/03/04 03:35:04;;;;;;;44.22;22.38;;;4.70;99.90;;;;;;4971979;28;20026;-81
2024/03/04 03:37:30;;;;;;;41.20;21.90;;;4.70;99.90;;;;;;4971882;28;20038;-81
2024/03/04 03:39:55;;;;;;;43.28;24.15;;;4.50;99.90;;;;;;4971475;28;20031;-81
2024/03/04 03:42:29;;;;;;;43.22;22.60;;;4.50;99.90;;;;;;4972131;28;20462;-81
2024/03/04 03:44:55;;;;;;;35.15;19.65;;;4.50;99.90;;;;;;4971570;28;20030;-81
2024/03/04 03:47:20;;;;;;;37.67;20.95;;;4.50;99.90;;;;;;4973270;28;20022;-81
2024/03/04 03:49:46;;;;;;;42.17;24.23;;;4.50;99.90;;;;;;4971375;28;20030;-81
2024/03/04 03:52:11;;;;;;;48.13;24.05;;;4.50;99.90;;;;;;4971741;28;20027;-81
2024/03/04 03:54:37;;;;;;;45.75;24.35;;;4.50;99.90;;;;;;4971780;28;20027;-81
2024/03/04 03:57:02;;;;;;;44.42;23.95;;;4.40;99.90;;;;;;4973227;28;20027;-81
2024/03/04 03:59:28;;;;;;;41.13;23.23;;;4.40;99.90;;;;;;4971443;28;20121;-81
2024/03/04 04:01:53;;;;;;;42.80;21.95;;;4.40;99.90;;;;;;4971761;28;20030;-81
2024/03/04 04:04:19;;;;;;;57.17;29.40;;;4.40;99.90;;;;;;4971504;28;20033;-81
2024/03/04 04:06:44;;;;;;;55.63;31.05;;;4.50;99.90;;;;;;4972861;28;20023;-81
2024/03/04 04:09:10;;;;;;;52.17;28.35;;;4.50;99.90;;;;;;4970876;28;20027;-81
2024/03/04 04:11:35;;;;;;;51.80;27.80;;;4.60;99.90;;;;;;4972486;28;20029;-81
2024/03/04 04:14:01;;;;;;;52.83;28.42;;;4.60;99.90;;;;;;4971422;28;20023;-80
2024/03/04 04:16:28;;;;;;;65.50;31.73;;;4.60;99.90;;;;;;4971502;28;20027;-81
2024/03/04 04:18:54;;;;;;;69.07;31.45;;;4.60;99.90;;;;;;4970831;28;20038;-81
2024/03/04 04:21:22;;;;;;;67.32;33.70;;;4.60;99.90;;;;;;4972594;28;20363;-81
2024/03/04 04:23:48;;;;;;;87.82;38.88;;;4.60;99.90;;;;;;4971202;28;20079;-81
2024/03/04 04:26:23;;;;;;;86.47;37.10;;;4.60;99.90;;;;;;4971270;28;20027;-81
2024/03/04 04:28:49;;;;;;;76.07;35.33;;;4.60;99.90;;;;;;4971027;28;20126;-81
2024/03/04 04:31:20;;;;;;;77.93;34.80;;;4.60;99.90;;;;;;4970618;28;20501;-81
2024/03/04 04:33:46;;;;;;;71.70;35.92;;;4.60;99.90;;;;;;4971172;28;20508;-81
2024/03/04 04:36:12;;;;;;;74.10;32.95;;;4.50;99.90;;;;;;4970809;28;20023;-81
2024/03/04 04:38:38;;;;;;;59.53;30.92;;;4.60;99.90;;;;;;4970782;28;20027;-81
2024/03/04 04:41:04;;;;;;;60.42;30.42;;;4.50;99.90;;;;;;4970454;28;20041;-81
2024/03/04 04:43:31;;;;;;;77.15;35.83;;;4.40;99.90;;;;;;4987003;28;20027;-81
2024/03/04 04:45:57;;;;;;;77.82;34.08;;;4.40;99.90;;;;;;4970911;28;20027;-81
2024/03/04 04:48:22;;;;;;;65.28;32.15;;;4.50;99.90;;;;;;4970698;28;20034;-82
2024/03/04 04:50:48;;;;;;;74.93;35.40;;;4.40;99.90;;;;;;4969994;28;20030;-81
2024/03/04 04:53:14;;;;;;;70.90;32.15;;;4.40;99.90;;;;;;4971900;28;20107;-81
2024/03/04 04:55:39;;;;;;;66.05;32.45;;;4.50;99.90;;;;;;4970648;28;20491;-81
2024/03/04 04:58:05;;;;;;;72.63;32.30;;;4.50;99.90;;;;;;4970586;28;20022;-81
2024/03/04 05:00:31;;;;;;;86.38;34.05;;;4.50;99.90;;;;;;4970209;28;20429;-81
2024/03/04 05:02:56;;;;;;;63.95;30.73;;;4.50;99.90;;;;;;4971498;28;20054;-81
2024/03/04 05:05:22;;;;;;;53.08;27.83;;;4.50;99.90;;;;;;4971814;28;20030;-82
2024/03/04 05:07:48;;;;;;;65.03;29.85;;;4.50;99.90;;;;;;4971746;28;20125;-81
2024/03/04 05:10:14;;;;;;;52.97;27.35;;;4.50;99.90;;;;;;4969768;28;20529;-82
2024/03/04 05:12:40;;;;;;;49.15;26.83;;;4.50;99.90;;;;;;4971691;28;20110;-81
2024/03/04 05:15:07;;;;;;;55.75;27.83;;;4.50;99.90;;;;;;4971618;28;20031;-81
2024/03/04 05:17:37;;;;;;;44.17;26.58;;;4.50;99.90;;;;;;4971636;28;20030;-81
2024/03/04 05:20:06;;;;;;;54.28;26.67;;;4.50;99.90;;;;;;4971424;28;20031;-81
2024/03/04 05:22:32;;;;;;;45.15;26.30;;;4.50;99.90;;;;;;4971206;28;20045;-81
2024/03/04 05:24:58;;;;;;;53.33;30.42;;;4.40;99.90;;;;;;4972150;28;20386;-81
2024/03/04 05:27:24;;;;;;;51.30;29.13;;;4.40;99.90;;;;;;4970635;28;20030;-81
2024/03/04 05:29:49;;;;;;;50.80;28.70;;;4.50;99.90;;;;;;4970843;28;20027;-81
2024/03/04 05:32:15;;;;;;;51.53;28.00;;;4.50;99.90;;;;;;4971632;28;20238;-81
2024/03/04 05:34:41;;;;;;;49.17;27.42;;;4.50;99.90;;;;;;4969964;28;20042;-81
2024/03/04 05:37:06;;;;;;;49.85;27.60;;;4.50;99.90;;;;;;4970076;28;20031;-81
2024/03/04 05:39:32;;;;;;;56.28;29.42;;;4.40;99.90;;;;;;4970903;28;20038;-81
2024/03/04 05:41:58;;;;;;;50.85;26.33;;;4.30;99.90;;;;;;4971242;28;20026;-81
2024/03/04 05:44:24;;;;;;;51.58;28.10;;;4.30;99.90;;;;;;4970205;28;20023;-81
2024/03/04 05:46:49;;;;;;;47.72;25.80;;;4.30;99.90;;;;;;4971082;28;20548;-81
2024/03/04 05:49:15;;;;;;;50.13;27.58;;;4.40;99.90;;;;;;4985457;28;20034;-81
2024/03/04 05:51:41;;;;;;;78.05;28.80;;;4.30;99.90;;;;;;4969429;28;20333;-81
2024/03/04 05:54:10;;;;;;;44.80;27.52;;;4.30;99.90;;;;;;4969753;28;20169;-81
2024/03/04 05:56:46;;;;;;;52.95;28.98;;;4.30;99.90;;;;;;4969670;28;20081;-81
2024/03/04 05:59:12;;;;;;;55.42;29.65;;;4.40;99.90;;;;;;4969175;28;20062;-81
2024/03/04 06:01:39;;;;;;;57.15;26.83;;;4.40;99.90;;;;;;4969828;28;20199;-81
2024/03/04 06:04:05;;;;;;;48.20;27.08;;;4.50;99.90;;;;;;4971239;28;20385;-81
2024/03/04 06:06:31;;;;;;;44.42;26.38;;;4.50;99.90;;;;;;4969504;28;20109;-82
2024/03/04 06:08:58;;;;;;;45.90;27.08;;;4.50;99.90;;;;;;4970860;28;20086;-81
2024/03/04 06:11:26;;;;;;;42.20;25.67;;;4.50;99.90;;;;;;4969437;28;20085;-81
2024/03/04 06:13:52;;;;;;;56.13;27.10;;;4.60;99.90;;;;;;4985567;28;20027;-82
2024/03/04 06:16:18;;;;;;;46.05;26.77;;;4.60;99.90;;;;;;4969062;28;20050;-82
2024/03/04 06:18:43;;;;;;;69.93;28.35;;;4.60;99.90;;;;;;4968866;28;20038;-81
2024/03/04 06:21:09;;;;;;;42.97;25.40;;;4.70;99.90;;;;;;4984877;28;20030;-81
2024/03/04 06:23:35;;;;;;;53.30;28.40;;;4.60;99.90;;;;;;4970443;28;20025;-81
2024/03/04 06:26:01;;;;;;;36.83;22.88;;;4.60;99.90;;;;;;4970525;28;20019;-81
2024/03/04 06:28:26;;;;;;;45.28;26.13;;;4.60;99.90;;;;;;4969425;28;20369;-80
2024/03/04 06:30:52;;;;;;;41.42;25.63;;;4.70;99.90;;;;;;4970089;28;20055;-81
2024/03/04 06:33:17;;;;;;;40.75;24.23;;;4.70;99.90;;;;;;4970386;28;20050;-81
2024/03/04 06:35:43;;;;;;;44.97;26.73;;;4.80;99.90;;;;;;4970358;28;20037;-81
2024/03/04 06:38:08;;;;;;;61.80;28.02;;;4.80;99.90;;;;;;4969232;28;20030;-81
2024/03/04 06:40:34;;;;;;;51.05;26.63;;;4.90;99.90;;;;;;4968763;28;20045;-81
2024/03/04 06:42:59;;;;;;;38.97;24.95;;;4.90;99.90;;;;;;4972306;28;20135;-81
2024/03/04 06:45:25;;;;;;;36.60;24.02;;;5.00;99.90;;;;;;4972369;28;20490;-80
2024/03/04 06:47:53;;;;;;;43.38;25.98;;;5.10;99.90;;;;;;4974154;28;20031;-81
2024/03/04 06:50:18;;;;;;;40.35;24.70;;;5.10;99.90;;;;;;4972602;28;20077;-81
2024/03/04 06:52:44;;;;;;;36.17;24.52;;;5.20;99.90;;;;;;4972777;28;20030;-81
2024/03/04 06:55:09;;;;;;;63.90;28.77;;;5.30;99.90;;;;;;4974047;28;20033;-80
2024/03/04 06:57:35;;;;;;;49.90;26.38;;;5.30;99.90;;;;;;4972712;28;20401;-81
2024/03/04 07:00:00;;;;;;;37.53;25.27;;;5.20;99.90;;;;;;4988200;28;20026;-81
2024/03/04 07:02:26;;;;;;;48.00;27.55;;;5.30;99.90;;;;;;4972682;28;20026;-81
2024/03/04 07:04:51;;;;;;;46.55;28.27;;;5.40;99.90;;;;;;4972697;28;20030;-81
2024/03/04 07:07:17;;;;;;;42.33;25.75;;;5.50;99.90;;;;;;4972348;28;20023;-81
2024/03/04 07:09:43;;;;;;;42.20;26.70;;;5.50;99.90;;;;;;4973100;28;20049;-82
2024/03/04 07:12:08;;;;;;;43.63;26.02;;;5.50;99.90;;;;;;4972525;28;20027;-81
2024/03/04 07:14:34;;;;;;;36.65;24.67;;;5.60;99.90;;;;;;4972255;28;20034;-81
2024/03/04 07:16:59;;;;;;;46.22;26.23;;;5.70;99.90;;;;;;4973861;28;20125;-80
2024/03/04 07:19:25;;;;;;;55.40;27.10;;;5.70;99.90;;;;;;4971788;28;20030;-80
2024/03/04 07:21:50;;;;;;;34.88;22.35;;;5.70;99.90;;;;;;4972410;28;20511;-80
2024/03/04 07:24:17;;;;;;;37.42;22.40;;;5.80;99.90;;;;;;4972293;28;20030;-81
2024/03/04 07:26:43;;;;;;;35.97;23.33;;;5.90;99.90;;;;;;4972355;28;20022;-80
2024/03/04 07:29:08;;;;;;;42.33;23.70;;;5.90;99.90;;;;;;4971576;28;20034;-80
2024/03/04 07:31:34;;;;;;;49.40;25.30;;;5.90;99.90;;;;;;4972150;28;20031;-81
2024/03/04 07:34:00;;;;;;;37.50;22.58;;;6.00;99.90;;;;;;4971913;28;20445;-80
2024/03/04 07:36:25;;;;;;;32.95;22.17;;;6.10;99.90;;;;;;4972120;28;20241;-81
2024/03/04 07:38:51;;;;;;;46.30;27.15;;;6.10;99.90;;;;;;4971758;28;20030;-81
2024/03/04 07:41:17;;;;;;;34.67;25.20;;;6.10;99.90;;;;;;4972252;28;20025;-81
2024/03/04 07:43:43;;;;;;;38.58;25.05;;;6.20;99.90;;;;;;4973773;28;20493;-81
2024/03/04 07:46:08;;;;;;;38.78;24.23;;;6.30;99.90;;;;;;4972067;28;20030;-81
2024/03/04 07:48:34;;;;;;;32.17;21.95;;;6.30;99.90;;;;;;4971935;28;20031;-81
2024/03/04 07:50:59;;;;;;;37.17;25.08;;;6.40;99.90;;;;;;4971530;28;20041;-81
2024/03/04 07:53:25;;;;;;;35.22;22.58;;;6.40;99.90;;;;;;4973065;28;20042;-81
2024/03/04 07:55:50;;;;;;;42.55;25.88;;;6.50;99.90;;;;;;4973058;28;20422;-81
2024/03/04 07:58:16;;;;;;;40.78;25.05;;;6.50;99.90;;;;;;4971518;28;20500;-81
2024/03/04 08:00:42;;;;;;;36.30;23.92;;;6.50;99.90;;;;;;4972663;28;20037;-81
2024/03/04 08:03:08;;;;;;;36.13;24.70;;;6.70;99.90;;;;;;4973507;28;20023;-81
2024/03/04 08:05:35;;;;;;;45.50;26.65;;;6.80;99.90;;;;;;4971741;28;20118;-81
2024/03/04 08:08:01;;;;;;;40.70;24.75;;;6.90;99.90;;;;;;4971917;28;20030;-81
2024/03/04 08:10:27;;;;;;;40.97;25.33;;;7.00;99.90;;;;;;4971677;28;20026;-81
2024/03/04 08:12:52;;;;;;;44.95;25.60;;;7.10;99.90;;;;;;4971427;28;20026;-80
2024/03/04 08:15:18;;;;;;;45.75;26.33;;;7.20;99.90;;;;;;4971091;28;20371;-80
2024/03/04 08:17:43;;;;;;;38.75;24.77;;;7.30;99.90;;;;;;4971180;28;20062;-81
2024/03/04 08:20:09;;;;;;;41.28;25.85;;;7.40;99.90;;;;;;4986888;28;20073;-80
2024/03/04 08:22:35;;;;;;;48.97;27.27;;;7.50;99.90;;;;;;4972494;28;20023;-81
2024/03/04 08:25:01;;;;;;;44.50;27.15;;;7.50;99.90;;;;;;4971280;28;20058;-81
2024/03/04 08:27:26;;;;;;;37.58;25.98;;;7.40;99.90;;;;;;4970992;28;20046;-81
2024/03/04 08:29:51;;;;;;;38.50;24.50;;;7.50;99.90;;;;;;4972442;28;20055;-81
2024/03/04 08:32:17;;;;;;;38.05;24.02;;;7.60;99.90;;;;;;4971003;28;20389;-81
2024/03/04 08:34:47;;;;;;;36.63;23.48;;;7.70;99.90;;;;;;4971223;28;20031;-82
2024/03/04 08:37:13;;;;;;;33.63;21.42;;;7.80;99.90;;;;;;4972731;28;20019;-81
2024/03/04 08:39:38;;;;;;;37.45;24.23;;;7.90;99.90;;;;;;4970892;28;20026;-81
2024/03/04 08:42:04;;;;;;;35.88;23.45;;;7.90;99.90;;;;;;4970985;28;20026;-81
2024/03/04 08:44:30;;;;;;;38.25;26.35;;;8.00;99.90;;;;;;4970983;28;20362;-81
2024/03/04 08:46:56;;;;;;;34.67;24.27;;;8.00;99.90;;;;;;4971531;28;20049;-81
2024/03/04 08:49:21;;;;;;;37.15;23.88;;;8.00;99.90;;;;;;4970736;28;20023;-82
2024/03/04 08:51:47;;;;;;;37.72;24.52;;;8.00;99.90;;;;;;4971904;28;20320;-82
2024/03/04 08:54:14;;;;;;;34.33;24.33;;;8.00;99.90;;;;;;4971555;28;20520;-81
2024/03/04 08:56:40;;;;;;;44.28;26.08;;;8.00;99.90;;;;;;4971056;28;20326;-82
2024/03/04 08:59:06;;;;;;;34.45;23.02;;;8.10;99.90;;;;;;4970600;28;20023;-81
2024/03/04 09:01:32;;;;;;;37.67;23.67;;;8.10;99.90;;;;;;4972828;28;20037;-81
2024/03/04 09:03:58;;;;;;;40.63;25.77;;;8.20;99.90;;;;;;4969947;28;20023;-81
2024/03/04 09:06:24;;;;;;;36.10;24.25;;;8.30;99.90;;;;;;4970878;28;20031;-81
2024/03/04 09:08:50;;;;;;;42.42;25.45;;;8.20;99.90;;;;;;4970323;28;20122;-81
2024/03/04 09:11:16;;;;;;;41.63;26.85;;;8.20;99.90;;;;;;4970848;28;20564;-81
2024/03/04 09:13:42;;;;;;;37.65;22.75;;;8.30;99.90;;;;;;4971097;28;20081;-81
2024/03/04 09:16:08;;;;;;;42.08;24.80;;;8.30;99.90;;;;;;4971046;28;20438;-81
2024/03/04 09:18:35;;;;;;;35.55;23.60;;;8.30;99.90;;;;;;4972183;28;20069;-81
2024/03/04 09:21:01;;;;;;;37.10;24.17;;;8.30;99.90;;;;;;4970673;28;20082;-81
2024/03/04 09:23:27;;;;;;;37.60;24.30;;;8.40;99.90;;;;;;4972917;28;20132;-80
2024/03/04 09:25:54;;;;;;;38.13;24.77;;;8.30;99.90;;;;;;4972271;28;20518;-81
2024/03/04 09:28:20;;;;;;;39.50;24.48;;;8.30;99.90;;;;;;4971597;28;20482;-81
2024/03/04 09:30:45;;;;;;;40.03;24.33;;;8.30;99.90;;;;;;4990080;28;20027;-80
2024/03/04 09:33:14;;;;;;;31.90;21.55;;;8.40;99.90;;;;;;4977564;28;20062;-81
2024/03/04 09:35:43;;;;;;;35.65;23.10;;;8.50;99.90;;;;;;4979153;28;20015;-81
2024/03/04 09:38:08;;;;;;;39.80;25.08;;;8.50;99.90;;;;;;4972904;28;20023;-81
2024/03/04 09:40:34;;;;;;;36.33;22.92;;;8.40;99.90;;;;;;4988785;28;20040;-81
2024/03/04 09:43:01;;;;;;;38.78;23.45;;;8.40;99.90;;;;;;4979992;28;20296;-81
2024/03/04 09:45:27;;;;;;;38.88;24.42;;;8.50;99.90;;;;;;4973396;28;20059;-81
2024/03/04 09:47:55;;;;;;;35.95;24.17;;;8.50;99.90;;;;;;4974421;28;20033;-81
2024/03/04 09:50:22;;;;;;;33.70;23.00;;;8.50;99.90;;;;;;4972407;28;20030;-81
2024/03/04 09:52:53;;;;;;;38.58;24.05;;;8.50;99.90;;;;;;4972861;28;20027;-81
2024/03/04 09:55:19;;;;;;;34.40;23.67;;;8.50;99.90;;;;;;4971127;28;20031;-82
2024/03/04 09:57:45;;;;;;;36.15;23.30;;;8.50;99.90;;;;;;4969873;28;20125;-82
2024/03/04 10:00:14;;;;;;;36.30;23.83;;;8.50;99.90;;;;;;4969550;28;20442;-82
2024/03/04 10:02:41;;;;;;;36.60;24.48;;;8.60;99.90;;;;;;4969887;28;20023;-82
2024/03/04 10:05:08;;;;;;;35.63;24.83;;;8.60;99.90;;;;;;4971650;28;20023;-81
2024/03/04 10:07:36;;;;;;;36.72;23.65;;;8.70;99.90;;;;;;4970444;28;20031;-82
2024/03/04 10:10:05;;;;;;;40.72;26.08;;;8.70;99.90;;;;;;4970945;28;20474;-81
2024/03/04 10:12:31;;;;;;;34.90;23.52;;;8.70;99.90;;;;;;4975468;28;20482;-81
2024/03/04 10:14:59;;;;;;;36.33;24.30;;;8.80;99.90;;;;;;4974183;28;20041;-81
2024/03/04 10:17:26;;;;;;;38.15;24.17;;;8.80;99.90;;;;;;4993443;28;20023;-80
2024/03/04 10:19:59;;;;;;;43.40;24.90;;;8.80;99.90;;;;;;4973811;28;20490;-81
2024/03/04 10:22:25;;;;;;;42.38;26.35;;;8.80;99.90;;;;;;4973665;28;20034;-81
2024/03/04 10:25:04;;;;;;;36.92;25.38;;;8.80;99.90;;;;;;4973324;28;20027;-81
2024/03/04 10:27:36;;;;;;;36.22;24.75;;;8.90;99.90;;;;;;4973085;28;20062;-81
2024/03/04 10:30:27;;;;;;;41.92;26.27;;;9.00;99.90;;;;;;4972847;28;20027;-81
2024/03/04 10:32:57;;;;;;;40.15;25.75;;;9.10;99.90;;;;;;4974132;28;20034;-81
2024/03/04 10:35:25;;;;;;;42.20;27.48;;;9.20;99.90;;;;;;4975027;28;20018;-80
2024/03/04 10:37:51;;;;;;;40.70;26.05;;;9.10;99.90;;;;;;4973087;28;20053;-81
2024/03/04 10:40:20;;;;;;;42.03;26.33;;;9.10;99.90;;;;;;4972352;28;20058;-81
2024/03/04 10:42:47;;;;;;;41.63;28.80;;;9.00;99.90;;;;;;4974115;28;20015;-81
2024/03/04 10:45:14;;;;;;;39.22;26.23;;;9.10;99.90;;;;;;4972760;28;20478;-81
2024/03/04 10:47:42;;;;;;;46.85;30.00;;;9.00;99.90;;;;;;4972942;28;20170;-81
2024/03/04 10:50:09;;;;;;;42.97;29.38;;;9.00;99.90;;;;;;4972493;28;20027;-81
2024/03/04 10:52:35;;;;;;;44.28;30.42;;;8.90;99.90;;;;;;4974183;28;20109;-81
2024/03/04 10:55:00;;;;;;;44.78;29.55;;;9.00;99.90;;;;;;4972718;28;20082;-81
2024/03/04 10:57:28;;;;;;;46.17;29.52;;;9.10;99.90;;;;;;4972860;28;20050;-80
2024/03/04 10:59:58;;;;;;;44.30;29.35;;;9.10;99.90;;;;;;4973735;28;20019;-81
2024/03/04 11:03:05;;;;;;;50.20;30.95;;;9.20;99.90;;;;;;4972903;28;20548;-81
2024/03/04 11:05:33;;;;;;;42.75;27.95;;;9.30;99.90;;;;;;4988880;28;20049;-81
2024/03/04 11:08:33;;;;;;;50.13;30.85;;;9.40;99.90;;;;;;4972956;28;20029;-81
2024/03/04 11:11:11;;;;;;;40.23;27.07;;;9.50;99.90;;;;;;4979273;28;20039;-81
2024/03/04 11:13:59;;;;;;;45.92;29.15;;;9.50;99.90;;;;;;4972285;28;20270;-80
2024/03/04 11:16:35;;;;;;;49.35;32.47;;;9.50;99.90;;;;;;4972273;28;20085;-80
2024/03/04 11:19:20;;;;;;;50.25;31.95;;;9.60;99.90;;;;;;4972853;28;20030;-81
2024/03/04 11:21:47;;;;;;;45.80;32.22;;;9.60;99.90;;;;;;4988381;28;20041;-80
2024/03/04 11:24:14;;;;;;;52.20;34.08;;;9.60;99.90;;;;;;4971951;28;20085;-80
2024/03/04 11:26:41;;;;;;;56.35;34.00;;;9.60;99.90;;;;;;4972481;28;20031;-80
2024/03/04 11:29:08;;;;;;;49.67;30.90;;;9.60;99.90;;;;;;4969377;28;20019;-80
2024/03/04 11:31:34;;;;;;;60.95;37.15;;;9.60;99.90;;;;;;4972408;28;20022;-80
2024/03/04 11:34:08;;;;;;;55.50;33.38;;;9.50;99.90;;;;;;4987538;28;20060;-80
2024/03/04 11:36:35;;;;;;;52.05;33.03;;;9.60;99.90;;;;;;4970832;28;20057;-80
2024/03/04 11:39:12;;;;;;;53.90;33.83;;;9.70;99.90;;;;;;4986611;28;20031;-81
2024/03/04 11:41:44;;;;;;;60.88;35.33;;;9.70;99.90;;;;;;4972561;28;20035;-81
2024/03/04 11:44:10;;;;;;;58.63;37.22;;;9.70;99.90;;;;;;4971010;28;20033;-81
2024/03/04 11:46:38;;;;;;;59.15;36.10;;;9.70;99.90;;;;;;4971165;28;20454;-81
2024/03/04 11:49:29;;;;;;;58.60;36.08;;;9.80;99.90;;;;;;4983737;28;20059;-81
2024/03/04 11:52:08;;;;;;;56.17;35.42;;;9.80;99.90;;;;;;4952112;29;20020;-81
2024/03/04 11:54:34;;;;;;;52.08;33.53;;;9.90;99.90;;;;;;4967887;28;20077;-81
2024/03/04 11:57:00;;;;;;;68.30;40.80;;;10.00;99.90;;;;;;4971089;28;20510;-81
2024/03/04 11:59:27;;;;;;;59.90;35.40;;;10.00;99.90;;;;;;4969884;28;20059;-80
2024/03/04 12:01:53;;;;;;;61.90;36.55;;;10.00;99.90;;;;;;4971031;28;20069;-80
2024/03/04 12:04:19;;;;;;;63.00;37.83;;;10.00;99.90;;;;;;4970763;28;20431;-81
2024/03/04 12:06:47;;;;;;;61.47;37.42;;;10.00;99.90;;;;;;4972147;28;20023;-81
2024/03/04 12:09:16;;;;;;;63.20;38.08;;;10.00;99.90;;;;;;4970338;28;20026;-81
2024/03/04 12:11:41;;;;;;;57.63;35.08;;;10.10;99.90;;;;;;4972312;28;20109;-81
2024/03/04 12:14:07;;;;;;;61.97;39.92;;;10.10;99.90;;;;;;4972190;28;20030;-81
2024/03/04 12:16:33;;;;;;;59.15;37.60;;;10.10;99.90;;;;;;4971076;28;20493;-81
2024/03/04 12:19:02;;;;;;;58.55;37.05;;;10.10;99.90;;;;;;4970726;28;20042;-81
2024/03/04 12:21:28;;;;;;;67.32;40.63;;;10.10;99.90;;;;;;4972646;28;20053;-81
2024/03/04 12:23:55;;;;;;;60.78;38.55;;;10.10;99.90;;;;;;4971219;28;20050;-81
2024/03/04 12:26:21;;;;;;;63.40;39.80;;;10.00;99.90;;;;;;4971007;28;20023;-81
2024/03/04 12:29:04;;;;;;;61.13;37.45;;;10.00;99.90;;;;;;4970561;28;20034;-81
2024/03/04 12:31:30;;;;;;;61.33;39.35;;;10.10;99.90;;;;;;4970628;28;20417;-81
2024/03/04 12:33:56;;;;;;;67.50;42.40;;;10.10;99.90;;;;;;4971993;28;20055;-81
2024/03/04 12:36:23;;;;;;;62.92;38.85;;;10.10;99.90;;;;;;4986832;28;20418;-81